Brampton-Caledon Airport

CNC3 · Ontario, Canada

4 oktober 2022

Tijd Code Weer Temp. Zicht Plafond Wind METAR/SPECI
09:00
V
10 °C 15 mi 24.000 ft 320° 320° 6 kt METAR CYYZ 041300Z 32006KT 15SM BKN240 10/04 A3023 RMK CI6 SLP242
08:00
V
7 °C 15 mi 26.000 ft 360° 360° 4 kt METAR CYYZ 041200Z 36004KT 15SM BKN260 07/03 A3023 RMK CI6 SLP242
07:00
V
7 °C 15 mi 24.000 ft 340° 340° 3 kt METAR CYYZ 041100Z 34003KT 320V020 15SM BKN240 07/03 A3023 RMK CI7 SLP242
06:00
V
7 °C 15 mi 25.000 ft 350° 350° 4 kt METAR CYYZ 041000Z 35004KT 15SM BKN250 07/03 A3023 RMK CI6 SLP243
05:00
V
7 °C 15 mi 25.000 ft 350° 350° 3 kt METAR CYYZ 040900Z 35003KT 15SM BKN250 07/03 A3023 RMK CS7 SLP243
04:00
V
7 °C 15 mi 25.000 ft 340° 340° 4 kt METAR CYYZ 040800Z 34004KT 15SM BKN250 07/03 A3024 RMK CS7 SLP244
03:00
V
7 °C 15 mi 25.000 ft 330° 330° 6 kt METAR CYYZ 040700Z 33006KT 15SM BKN250 07/03 A3024 RMK CI7 SLP247
02:00
V
8 °C 15 mi 25.000 ft 320° 320° 5 kt METAR CYYZ 040600Z 32005KT 15SM BKN250 08/03 A3025 RMK CI6 SLP249
01:00
V
8 °C 15 mi - 320° 320° 8 kt METAR CYYZ 040500Z 32008KT 15SM SCT250 08/03 A3027 RMK CI3 SLP254
00:00
V
9 °C 15 mi - 310° 310° 6 kt METAR CYYZ 040400Z 31006KT 15SM FEW160 SCT250 09/03 A3028 RMK AC1CI2 SLP258

3 oktober 2022

Tijd Code Weer Temp. Zicht Plafond Wind METAR/SPECI
23:00
V
9 °C 15 mi 25.000 ft 280° 280° 4 kt METAR CYYZ 040300Z 28004KT 15SM BKN250 09/03 A3029 RMK CI5 SLP261
22:00
V
10 °C 15 mi - 250° 250° 3 kt METAR CYYZ 040200Z 25003KT 15SM FEW180 SCT230 10/04 A3030 RMK AC2CI1 SLP264
21:00
V
11 °C 15 mi - 150° 150° 3 kt METAR CYYZ 040100Z 15003KT 15SM SCT180 11/04 A3030 RMK AC3 SLP265
20:00
V
11 °C 15 mi - 170° 170° 4 kt METAR CYYZ 040000Z 17004KT 15SM FEW160 SCT230 11/03 A3030 RMK AC2CI2 SLP266
19:00
V
12 °C 15 mi 23.000 ft 160° 160° 5 kt METAR CYYZ 032300Z 16005KT 15SM SCT160 BKN230 12/03 A3030 RMK AC3CI3 SLP266
18:00
V
13 °C 15 mi 24.000 ft 140° 140° 6 kt METAR CYYZ 032200Z 14006KT 15SM BKN240 13/03 A3031 RMK CI6 SLP269
17:00
V
13 °C 15 mi 24.000 ft 160° 160° 8 kt METAR CYYZ 032100Z 16008KT 15SM BKN240 13/02 A3032 RMK CI6 SLP272
16:00
V
15 °C 15 mi 24.000 ft Var Var 8 kt METAR CYYZ 032000Z VRB08KT 15SM BKN240 15/02 A3032 RMK CI5 SLP272
15:00
V
15 °C 15 mi - 210° 210° 4 kt METAR CYYZ 031900Z 21004KT 130V270 15SM FEW240 15/02 A3034 RMK CI2 SLP280
14:00
V
14 °C 15 mi - 120° 120° 5 kt METAR CYYZ 031800Z 12005KT 110V190 15SM FEW240 14/01 A3037 RMK CI2 SLP291
13:00
V
14 °C 15 mi - 150° 150° 5 kt METAR CYYZ 031700Z 15005KT 120V190 15SM FEW260 14/00 A3040 RMK CI1 SLP299
12:00
V
14 °C 15 mi - Var Var 8 kt METAR CYYZ 031600Z VRB08KT 15SM FEW240 14/M01 A3041 RMK CI2 SLP304
11:00
V
13 °C 15 mi - 040° 040° 4 kt METAR CYYZ 031500Z 04004KT 350V090 15SM FEW260 13/01 A3041 RMK CI1 SLP304
10:00
V
10 °C 15 mi - 350° 350° 6 kt METAR CYYZ 031400Z 35006KT 15SM FEW260 10/01 A3040 RMK CI1 CI TR SLP301
09:00
V
7 °C 15 mi - 010° 010° 6 kt METAR CYYZ 031300Z 01006KT 15SM FEW260 07/01 A3039 RMK CI1 CI TR SLP297
08:00
V
5 °C 15 mi - 010° 010° 6 kt METAR CYYZ 031200Z 01006KT 15SM FEW260 05/00 A3038 RMK CI1 CI TR SLP294
07:00
V
4 °C 15 mi - 360° 360° 6 kt METAR CYYZ 031100Z 36006KT 15SM FEW260 04/M00 A3038 RMK CI1 CI TR SLP293
06:00
V
4 °C 15 mi - 010° 010° 5 kt METAR CYYZ 031000Z 01005KT 15SM FEW250 04/M01 A3037 RMK CI1 CI TR SLP289
05:00
V
4 °C 15 mi - 320° 320° 6 kt METAR CYYZ 030900Z 32006KT 15SM SKC 04/M00 A3036 RMK SLP287
04:00
V
5 °C 15 mi - 340° 340° 6 kt METAR CYYZ 030800Z 34006KT 15SM SKC 05/M00 A3036 RMK SLP287
03:00
V
5 °C 15 mi - 330° 330° 4 kt METAR CYYZ 030700Z 33004KT 15SM SKC 05/00 A3036 RMK SLP287
02:00
V
7 °C 15 mi - 040° 040° 5 kt METAR CYYZ 030600Z 04005KT 15SM SKC 07/M01 A3037 RMK SLP291
01:00
V
8 °C 15 mi - 060° 060° 5 kt METAR CYYZ 030500Z 06005KT 15SM SKC 08/M01 A3039 RMK SLP295
00:00
V
9 °C 15 mi - 050° 050° 4 kt METAR CYYZ 030400Z 05004KT 15SM SKC 09/00 A3039 RMK SLP296

2 oktober 2022

Tijd Code Weer Temp. Zicht Plafond Wind METAR/SPECI
23:00
V
9 °C 15 mi - 040° 040° 7 kt METAR CYYZ 030300Z 04007KT 15SM SKC 09/01 A3037 RMK SLP291
22:00
V
11 °C 15 mi - 020° 020° 8 kt METAR CYYZ 030200Z 02008KT 15SM SKC 11/01 A3037 RMK SLP290
21:00
V
11 °C 15 mi - 020° 020° 6 kt METAR CYYZ 030100Z 02006KT 15SM SKC 11/01 A3036 RMK SLP288
20:00
V
12 °C 15 mi - 060° 060° 5 kt METAR CYYZ 030000Z 06005KT 15SM SKC 12/01 A3035 RMK SLP284
19:00
V
13 °C 15 mi - 010° 010° 9 kt METAR CYYZ 022300Z 01009KT 15SM SKC 13/01 A3034 RMK SLP280
18:00
V
14 °C 15 mi - 350° 350° 12 - 17 kt METAR CYYZ 022200Z 35012G17KT 15SM SKC 14/01 A3033 RMK SLP275
17:00
V
15 °C 15 mi - 360° 360° 12 kt METAR CYYZ 022100Z 36012KT 15SM FEW250 15/00 A3033 RMK CI1 CI TR SLP274
16:00
V
15 °C 15 mi - 010° 010° 7 - 17 kt METAR CYYZ 022000Z 01007G17KT 15SM FEW250 15/01 A3032 RMK CI1 CI TR SLP272
15:00
V
15 °C 15 mi - 020° 020° 9 - 20 kt METAR CYYZ 021900Z 02009G20KT 15SM FEW250 15/M00 A3033 RMK CI1 CI TR SLP274
14:00
V
15 °C 15 mi - 050° 050° 9 - 18 kt METAR CYYZ 021800Z 05009G18KT 350V070 15SM FEW250 15/M01 A3034 RMK CI1 CI TR SLP280
13:00
V
13 °C 15 mi - 010° 010° 10 - 20 kt METAR CYYZ 021700Z 01010G20KT 360V060 15SM FEW250 13/M01 A3035 RMK CI1 CI TR SLP283
12:00
V
12 °C 15 mi - 060° 060° 11 - 17 kt METAR CYYZ 021600Z 06011G17KT 15SM FEW250 12/M02 A3036 RMK CI1 CI TR SLP286
11:00
V
10 °C 15 mi - 050° 050° 10 - 16 kt METAR CYYZ 021500Z 05010G16KT 15SM FEW250 10/M00 A3036 RMK CI1 CI TR SLP285
10:00
V
9 °C 15 mi - 020° 020° 14 kt METAR CYYZ 021400Z 02014KT 15SM FEW250 09/01 A3036 RMK CI1 CI TR SLP284
Oudere gegevens

Met cookies volgen wij en derde partijen jouw internetgedrag binnen onze site. Als je verdergaat gaan we ervan uit dat je dit goedvindt. Meer info